sensor_id;sensor_type;location;lat;lon;timestamp;P1;durP1;ratioP1;P2;durP2;ratioP2
286;SDS011;127;48.770;9.212;2023-09-07T00:01:07;6.23;;;4.40;;
286;SDS011;127;48.770;9.212;2023-09-07T00:03:36;8.67;;;5.47;;
286;SDS011;127;48.770;9.212;2023-09-07T00:06:06;6.90;;;4.20;;
286;SDS011;127;48.770;9.212;2023-09-07T00:11:48;8.00;;;4.30;;
286;SDS011;127;48.770;9.212;2023-09-07T00:14:17;6.13;;;4.37;;
286;SDS011;127;48.770;9.212;2023-09-07T00:16:45;8.23;;;4.10;;
286;SDS011;127;48.770;9.212;2023-09-07T00:19:14;7.63;;;3.67;;
286;SDS011;127;48.770;9.212;2023-09-07T00:21:43;7.90;;;4.13;;
286;SDS011;127;48.770;9.212;2023-09-07T00:24:11;7.10;;;4.77;;
286;SDS011;127;48.770;9.212;2023-09-07T00:26:41;8.73;;;5.07;;
286;SDS011;127;48.770;9.212;2023-09-07T00:29:12;12.93;;;5.37;;
286;SDS011;127;48.770;9.212;2023-09-07T00:31:41;13.67;;;5.70;;
286;SDS011;127;48.770;9.212;2023-09-07T00:34:10;8.53;;;5.03;;
286;SDS011;127;48.770;9.212;2023-09-07T00:36:38;8.60;;;5.03;;
286;SDS011;127;48.770;9.212;2023-09-07T00:39:07;12.87;;;6.77;;
286;SDS011;127;48.770;9.212;2023-09-07T00:41:36;9.60;;;5.83;;
286;SDS011;127;48.770;9.212;2023-09-07T00:44:05;9.10;;;5.93;;
286;SDS011;127;48.770;9.212;2023-09-07T00:46:36;9.10;;;5.90;;
286;SDS011;127;48.770;9.212;2023-09-07T00:49:05;10.87;;;6.73;;
286;SDS011;127;48.770;9.212;2023-09-07T00:51:33;10.53;;;5.57;;
286;SDS011;127;48.770;9.212;2023-09-07T00:54:03;9.67;;;5.87;;
286;SDS011;127;48.770;9.212;2023-09-07T00:56:31;9.50;;;5.77;;
286;SDS011;127;48.770;9.212;2023-09-07T00:59:00;7.30;;;5.53;;
286;SDS011;127;48.770;9.212;2023-09-07T01:01:30;8.97;;;5.30;;
286;SDS011;127;48.770;9.212;2023-09-07T01:04:01;10.97;;;5.37;;
286;SDS011;127;48.770;9.212;2023-09-07T01:06:32;8.33;;;4.63;;
286;SDS011;127;48.770;9.212;2023-09-07T01:09:06;9.47;;;5.63;;
286;SDS011;127;48.770;9.212;2023-09-07T01:11:40;8.30;;;5.30;;
286;SDS011;127;48.770;9.212;2023-09-07T01:14:08;6.83;;;5.00;;
286;SDS011;127;48.770;9.212;2023-09-07T01:16:38;7.60;;;5.10;;
286;SDS011;127;48.770;9.212;2023-09-07T01:19:09;8.30;;;5.10;;
286;SDS011;127;48.770;9.212;2023-09-07T01:21:41;10.43;;;6.13;;
286;SDS011;127;48.770;9.212;2023-09-07T01:24:11;9.67;;;5.47;;
286;SDS011;127;48.770;9.212;2023-09-07T01:26:42;10.13;;;5.87;;
286;SDS011;127;48.770;9.212;2023-09-07T01:29:14;10.60;;;6.00;;
286;SDS011;127;48.770;9.212;2023-09-07T01:31:44;13.00;;;5.20;;
286;SDS011;127;48.770;9.212;2023-09-07T01:34:13;10.93;;;6.00;;
286;SDS011;127;48.770;9.212;2023-09-07T01:36:44;17.20;;;7.30;;
286;SDS011;127;48.770;9.212;2023-09-07T01:39:13;9.80;;;6.43;;
286;SDS011;127;48.770;9.212;2023-09-07T01:41:42;10.30;;;5.97;;
286;SDS011;127;48.770;9.212;2023-09-07T01:44:11;9.17;;;6.07;;
286;SDS011;127;48.770;9.212;2023-09-07T01:46:39;9.97;;;6.30;;
286;SDS011;127;48.770;9.212;2023-09-07T01:49:08;8.90;;;6.27;;
286;SDS011;127;48.770;9.212;2023-09-07T01:51:37;14.53;;;6.90;;
286;SDS011;127;48.770;9.212;2023-09-07T01:54:08;13.90;;;5.70;;
286;SDS011;127;48.770;9.212;2023-09-07T01:56:37;10.07;;;6.30;;
286;SDS011;127;48.770;9.212;2023-09-07T01:59:06;9.50;;;5.40;;
286;SDS011;127;48.770;9.212;2023-09-07T02:01:35;10.90;;;6.20;;
286;SDS011;127;48.770;9.212;2023-09-07T02:04:05;10.43;;;5.93;;
286;SDS011;127;48.770;9.212;2023-09-07T02:06:34;10.77;;;5.90;;
286;SDS011;127;48.770;9.212;2023-09-07T02:09:03;10.00;;;5.87;;
286;SDS011;127;48.770;9.212;2023-09-07T02:11:35;9.17;;;5.77;;
286;SDS011;127;48.770;9.212;2023-09-07T02:14:05;10.20;;;6.17;;
286;SDS011;127;48.770;9.212;2023-09-07T02:16:34;9.63;;;5.80;;
286;SDS011;127;48.770;9.212;2023-09-07T02:19:03;10.10;;;6.47;;
286;SDS011;127;48.770;9.212;2023-09-07T02:21:34;15.80;;;6.17;;
286;SDS011;127;48.770;9.212;2023-09-07T02:24:02;8.80;;;5.63;;
286;SDS011;127;48.770;9.212;2023-09-07T02:26:32;10.27;;;5.87;;
286;SDS011;127;48.770;9.212;2023-09-07T02:29:08;11.90;;;7.00;;
286;SDS011;127;48.770;9.212;2023-09-07T02:31:37;10.20;;;6.07;;
286;SDS011;127;48.770;9.212;2023-09-07T02:34:06;9.47;;;5.53;;
286;SDS011;127;48.770;9.212;2023-09-07T02:36:34;18.90;;;6.40;;
286;SDS011;127;48.770;9.212;2023-09-07T02:39:03;10.20;;;5.90;;
286;SDS011;127;48.770;9.212;2023-09-07T02:41:36;12.50;;;6.03;;
286;SDS011;127;48.770;9.212;2023-09-07T02:44:05;10.70;;;6.50;;
286;SDS011;127;48.770;9.212;2023-09-07T02:46:34;15.90;;;5.50;;
286;SDS011;127;48.770;9.212;2023-09-07T02:49:03;10.00;;;6.33;;
286;SDS011;127;48.770;9.212;2023-09-07T02:51:31;14.43;;;6.53;;
286;SDS011;127;48.770;9.212;2023-09-07T02:54:09;11.07;;;6.17;;
286;SDS011;127;48.770;9.212;2023-09-07T02:56:40;14.23;;;5.97;;
286;SDS011;127;48.770;9.212;2023-09-07T02:59:09;17.60;;;6.40;;
286;SDS011;127;48.770;9.212;2023-09-07T03:01:38;9.37;;;5.97;;
286;SDS011;127;48.770;9.212;2023-09-07T03:04:07;11.60;;;6.00;;
286;SDS011;127;48.770;9.212;2023-09-07T03:06:36;10.33;;;6.50;;
286;SDS011;127;48.770;9.212;2023-09-07T03:09:04;14.00;;;6.57;;
286;SDS011;127;48.770;9.212;2023-09-07T03:11:34;10.20;;;5.90;;
286;SDS011;127;48.770;9.212;2023-09-07T03:14:05;9.70;;;5.73;;
286;SDS011;127;48.770;9.212;2023-09-07T03:16:34;9.57;;;6.10;;
286;SDS011;127;48.770;9.212;2023-09-07T03:19:03;8.30;;;5.63;;
286;SDS011;127;48.770;9.212;2023-09-07T03:21:32;11.17;;;6.40;;
286;SDS011;127;48.770;9.212;2023-09-07T03:24:01;10.47;;;6.77;;
286;SDS011;127;48.770;9.212;2023-09-07T03:26:30;9.03;;;6.13;;
286;SDS011;127;48.770;9.212;2023-09-07T03:28:58;15.20;;;5.73;;
286;SDS011;127;48.770;9.212;2023-09-07T03:31:31;12.23;;;5.97;;
286;SDS011;127;48.770;9.212;2023-09-07T03:34:00;11.10;;;6.63;;
286;SDS011;127;48.770;9.212;2023-09-07T03:36:28;13.97;;;6.77;;
286;SDS011;127;48.770;9.212;2023-09-07T03:38:57;12.80;;;6.10;;
286;SDS011;127;48.770;9.212;2023-09-07T03:41:23;13.70;;;7.03;;
286;SDS011;127;48.770;9.212;2023-09-07T03:43:55;9.47;;;6.43;;
286;SDS011;127;48.770;9.212;2023-09-07T03:46:24;12.93;;;7.00;;
286;SDS011;127;48.770;9.212;2023-09-07T03:48:57;11.60;;;7.50;;
286;SDS011;127;48.770;9.212;2023-09-07T03:51:26;13.10;;;7.20;;
286;SDS011;127;48.770;9.212;2023-09-07T03:53:54;17.17;;;6.20;;
286;SDS011;127;48.770;9.212;2023-09-07T03:56:24;12.00;;;7.03;;
286;SDS011;127;48.770;9.212;2023-09-07T03:58:53;13.77;;;7.20;;
286;SDS011;127;48.770;9.212;2023-09-07T04:01:21;15.90;;;7.23;;
286;SDS011;127;48.770;9.212;2023-09-07T04:03:50;10.37;;;7.20;;
286;SDS011;127;48.770;9.212;2023-09-07T04:06:22;9.13;;;6.10;;
286;SDS011;127;48.770;9.212;2023-09-07T04:08:51;17.30;;;7.03;;
286;SDS011;127;48.770;9.212;2023-09-07T04:11:20;15.33;;;7.00;;
286;SDS011;127;48.770;9.212;2023-09-07T04:13:48;17.10;;;7.03;;
286;SDS011;127;48.770;9.212;2023-09-07T04:16:17;12.20;;;7.83;;
286;SDS011;127;48.770;9.212;2023-09-07T04:18:46;10.77;;;7.37;;
286;SDS011;127;48.770;9.212;2023-09-07T04:21:14;14.80;;;7.20;;
286;SDS011;127;48.770;9.212;2023-09-07T04:23:46;15.07;;;7.57;;
286;SDS011;127;48.770;9.212;2023-09-07T04:26:14;14.00;;;8.00;;
286;SDS011;127;48.770;9.212;2023-09-07T04:28:43;11.60;;;7.80;;
286;SDS011;127;48.770;9.212;2023-09-07T04:31:12;14.37;;;7.43;;
286;SDS011;127;48.770;9.212;2023-09-07T04:33:40;14.20;;;7.50;;
286;SDS011;127;48.770;9.212;2023-09-07T04:36:09;16.53;;;8.60;;
286;SDS011;127;48.770;9.212;2023-09-07T04:38:39;13.80;;;8.50;;
286;SDS011;127;48.770;9.212;2023-09-07T04:41:11;12.90;;;7.90;;
286;SDS011;127;48.770;9.212;2023-09-07T04:43:41;11.67;;;8.03;;
286;SDS011;127;48.770;9.212;2023-09-07T04:46:11;15.20;;;8.17;;
286;SDS011;127;48.770;9.212;2023-09-07T04:48:40;15.67;;;7.90;;
286;SDS011;127;48.770;9.212;2023-09-07T04:51:09;12.27;;;8.30;;
286;SDS011;127;48.770;9.212;2023-09-07T04:53:42;13.30;;;7.87;;
286;SDS011;127;48.770;9.212;2023-09-07T04:56:13;12.27;;;8.00;;
286;SDS011;127;48.770;9.212;2023-09-07T04:58:42;17.03;;;8.20;;
286;SDS011;127;48.770;9.212;2023-09-07T05:01:11;12.87;;;7.70;;
286;SDS011;127;48.770;9.212;2023-09-07T05:03:40;13.13;;;8.60;;
286;SDS011;127;48.770;9.212;2023-09-07T05:06:08;11.77;;;7.73;;
286;SDS011;127;48.770;9.212;2023-09-07T05:08:37;18.23;;;8.20;;
286;SDS011;127;48.770;9.212;2023-09-07T05:11:06;21.00;;;8.80;;
286;SDS011;127;48.770;9.212;2023-09-07T05:13:38;14.70;;;8.33;;
286;SDS011;127;48.770;9.212;2023-09-07T05:16:06;14.57;;;8.50;;
286;SDS011;127;48.770;9.212;2023-09-07T05:18:35;16.23;;;8.23;;
286;SDS011;127;48.770;9.212;2023-09-07T05:21:13;11.90;;;8.00;;
286;SDS011;127;48.770;9.212;2023-09-07T05:23:43;17.73;;;8.77;;
286;SDS011;127;48.770;9.212;2023-09-07T05:26:12;13.87;;;7.70;;
286;SDS011;127;48.770;9.212;2023-09-07T05:28:44;14.63;;;8.40;;
286;SDS011;127;48.770;9.212;2023-09-07T05:31:12;14.00;;;8.30;;
286;SDS011;127;48.770;9.212;2023-09-07T05:33:41;13.30;;;8.10;;
286;SDS011;127;48.770;9.212;2023-09-07T05:36:10;18.17;;;9.23;;
286;SDS011;127;48.770;9.212;2023-09-07T05:38:38;13.47;;;8.07;;
286;SDS011;127;48.770;9.212;2023-09-07T05:41:07;14.27;;;8.07;;
286;SDS011;127;48.770;9.212;2023-09-07T05:43:36;18.87;;;8.10;;
286;SDS011;127;48.770;9.212;2023-09-07T05:46:07;12.17;;;7.50;;
286;SDS011;127;48.770;9.212;2023-09-07T05:48:36;12.13;;;7.80;;
286;SDS011;127;48.770;9.212;2023-09-07T05:51:05;14.90;;;8.73;;
286;SDS011;127;48.770;9.212;2023-09-07T05:53:34;14.43;;;8.17;;
286;SDS011;127;48.770;9.212;2023-09-07T05:56:03;12.87;;;8.23;;
286;SDS011;127;48.770;9.212;2023-09-07T05:58:32;10.63;;;7.80;;
286;SDS011;127;48.770;9.212;2023-09-07T06:01:00;9.97;;;6.93;;
286;SDS011;127;48.770;9.212;2023-09-07T06:03:33;11.10;;;7.60;;
286;SDS011;127;48.770;9.212;2023-09-07T06:06:04;12.87;;;8.70;;
286;SDS011;127;48.770;9.212;2023-09-07T06:08:33;17.43;;;8.17;;
286;SDS011;127;48.770;9.212;2023-09-07T06:11:01;14.67;;;7.83;;
286;SDS011;127;48.770;9.212;2023-09-07T06:13:31;16.67;;;8.10;;
286;SDS011;127;48.770;9.212;2023-09-07T06:15:59;18.33;;;7.93;;
286;SDS011;127;48.770;9.212;2023-09-07T06:18:28;13.57;;;8.00;;
286;SDS011;127;48.770;9.212;2023-09-07T06:24:10;15.40;;;8.83;;
286;SDS011;127;48.770;9.212;2023-09-07T06:26:39;13.40;;;7.83;;
286;SDS011;127;48.770;9.212;2023-09-07T06:29:09;13.27;;;7.93;;
286;SDS011;127;48.770;9.212;2023-09-07T06:31:38;15.00;;;8.43;;
286;SDS011;127;48.770;9.212;2023-09-07T06:34:07;14.77;;;8.40;;
286;SDS011;127;48.770;9.212;2023-09-07T06:36:35;14.43;;;7.57;;
286;SDS011;127;48.770;9.212;2023-09-07T06:39:04;13.77;;;7.80;;
286;SDS011;127;48.770;9.212;2023-09-07T06:41:36;10.87;;;7.20;;
286;SDS011;127;48.770;9.212;2023-09-07T06:44:05;13.30;;;8.27;;
286;SDS011;127;48.770;9.212;2023-09-07T06:46:34;10.57;;;7.70;;
286;SDS011;127;48.770;9.212;2023-09-07T06:49:03;15.37;;;8.07;;
286;SDS011;127;48.770;9.212;2023-09-07T06:51:31;14.70;;;7.60;;
286;SDS011;127;48.770;9.212;2023-09-07T06:54:00;10.70;;;8.17;;
286;SDS011;127;48.770;9.212;2023-09-07T06:56:29;11.07;;;7.67;;
286;SDS011;127;48.770;9.212;2023-09-07T06:59:02;17.40;;;8.20;;
286;SDS011;127;48.770;9.212;2023-09-07T07:01:31;10.60;;;7.20;;
286;SDS011;127;48.770;9.212;2023-09-07T07:04:00;13.40;;;7.37;;
286;SDS011;127;48.770;9.212;2023-09-07T07:06:29;13.90;;;7.90;;
286;SDS011;127;48.770;9.212;2023-09-07T07:08:57;10.53;;;7.03;;
286;SDS011;127;48.770;9.212;2023-09-07T07:11:26;11.90;;;7.47;;
286;SDS011;127;48.770;9.212;2023-09-07T07:13:55;10.80;;;6.63;;
286;SDS011;127;48.770;9.212;2023-09-07T07:16:26;10.17;;;6.93;;
286;SDS011;127;48.770;9.212;2023-09-07T07:18:55;12.83;;;6.80;;
286;SDS011;127;48.770;9.212;2023-09-07T07:21:23;11.60;;;7.70;;
286;SDS011;127;48.770;9.212;2023-09-07T07:23:52;11.50;;;7.37;;
286;SDS011;127;48.770;9.212;2023-09-07T07:26:21;12.30;;;7.30;;
286;SDS011;127;48.770;9.212;2023-09-07T07:28:52;11.30;;;7.07;;
286;SDS011;127;48.770;9.212;2023-09-07T07:31:21;10.50;;;6.80;;
286;SDS011;127;48.770;9.212;2023-09-07T07:33:55;9.90;;;6.73;;
286;SDS011;127;48.770;9.212;2023-09-07T07:36:23;13.67;;;7.00;;
286;SDS011;127;48.770;9.212;2023-09-07T07:38:52;11.00;;;6.73;;
286;SDS011;127;48.770;9.212;2023-09-07T07:41:21;11.70;;;7.33;;
286;SDS011;127;48.770;9.212;2023-09-07T07:43:50;11.53;;;5.50;;
286;SDS011;127;48.770;9.212;2023-09-07T07:46:18;10.77;;;6.63;;
286;SDS011;127;48.770;9.212;2023-09-07T07:48:49;8.20;;;5.27;;
286;SDS011;127;48.770;9.212;2023-09-07T07:51:20;10.60;;;5.57;;
286;SDS011;127;48.770;9.212;2023-09-07T07:53:49;7.80;;;5.40;;
286;SDS011;127;48.770;9.212;2023-09-07T07:56:18;9.47;;;6.33;;
286;SDS011;127;48.770;9.212;2023-09-07T07:58:46;11.10;;;6.07;;
286;SDS011;127;48.770;9.212;2023-09-07T08:01:15;19.33;;;7.40;;
286;SDS011;127;48.770;9.212;2023-09-07T08:03:45;10.97;;;6.17;;
286;SDS011;127;48.770;9.212;2023-09-07T08:06:14;5.77;;;5.10;;
286;SDS011;127;48.770;9.212;2023-09-07T08:08:47;7.90;;;5.60;;
286;SDS011;127;48.770;9.212;2023-09-07T08:11:16;6.87;;;5.23;;
286;SDS011;127;48.770;9.212;2023-09-07T08:13:46;9.17;;;6.77;;
286;SDS011;127;48.770;9.212;2023-09-07T08:16:15;10.20;;;6.37;;
286;SDS011;127;48.770;9.212;2023-09-07T08:18:44;12.63;;;5.13;;
286;SDS011;127;48.770;9.212;2023-09-07T08:21:13;12.63;;;6.27;;
286;SDS011;127;48.770;9.212;2023-09-07T08:23:43;9.30;;;7.00;;
286;SDS011;127;48.770;9.212;2023-09-07T08:26:14;9.47;;;7.10;;
286;SDS011;127;48.770;9.212;2023-09-07T08:28:43;9.50;;;5.63;;
286;SDS011;127;48.770;9.212;2023-09-07T08:31:12;5.27;;;4.77;;
286;SDS011;127;48.770;9.212;2023-09-07T08:33:47;10.60;;;6.40;;
286;SDS011;127;48.770;9.212;2023-09-07T08:36:16;8.57;;;5.87;;
286;SDS011;127;48.770;9.212;2023-09-07T08:38:47;6.40;;;5.60;;
286;SDS011;127;48.770;9.212;2023-09-07T08:41:18;13.27;;;7.83;;
286;SDS011;127;48.770;9.212;2023-09-07T08:43:48;10.53;;;6.27;;
286;SDS011;127;48.770;9.212;2023-09-07T08:46:20;16.73;;;7.47;;
286;SDS011;127;48.770;9.212;2023-09-07T08:48:51;11.10;;;8.07;;
286;SDS011;127;48.770;9.212;2023-09-07T08:51:20;12.23;;;6.30;;
286;SDS011;127;48.770;9.212;2023-09-07T08:53:53;18.63;;;7.43;;
286;SDS011;127;48.770;9.212;2023-09-07T08:56:25;20.23;;;7.83;;
286;SDS011;127;48.770;9.212;2023-09-07T08:58:57;10.63;;;6.83;;
286;SDS011;127;48.770;9.212;2023-09-07T09:01:28;11.30;;;6.37;;
286;SDS011;127;48.770;9.212;2023-09-07T09:03:58;13.70;;;6.90;;
286;SDS011;127;48.770;9.212;2023-09-07T09:06:26;12.80;;;6.60;;
286;SDS011;127;48.770;9.212;2023-09-07T09:08:57;59.40;;;15.23;;
286;SDS011;127;48.770;9.212;2023-09-07T09:11:34;12.70;;;8.00;;
286;SDS011;127;48.770;9.212;2023-09-07T09:14:04;10.20;;;7.70;;
286;SDS011;127;48.770;9.212;2023-09-07T09:16:34;9.30;;;6.77;;
286;SDS011;127;48.770;9.212;2023-09-07T09:19:02;36.70;;;10.37;;
286;SDS011;127;48.770;9.212;2023-09-07T09:21:31;11.07;;;7.87;;
286;SDS011;127;48.770;9.212;2023-09-07T09:24:03;13.80;;;8.23;;
286;SDS011;127;48.770;9.212;2023-09-07T09:26:40;16.60;;;8.20;;
286;SDS011;127;48.770;9.212;2023-09-07T09:29:09;9.30;;;5.83;;
286;SDS011;127;48.770;9.212;2023-09-07T09:31:41;13.17;;;6.27;;
286;SDS011;127;48.770;9.212;2023-09-07T09:34:11;8.10;;;6.47;;
286;SDS011;127;48.770;9.212;2023-09-07T09:36:41;11.40;;;5.70;;
286;SDS011;127;48.770;9.212;2023-09-07T09:39:20;10.20;;;6.10;;
286;SDS011;127;48.770;9.212;2023-09-07T09:41:53;8.20;;;5.80;;
286;SDS011;127;48.770;9.212;2023-09-07T09:44:22;10.17;;;6.70;;
286;SDS011;127;48.770;9.212;2023-09-07T09:46:53;10.20;;;7.00;;
286;SDS011;127;48.770;9.212;2023-09-07T09:49:22;11.20;;;6.10;;
286;SDS011;127;48.770;9.212;2023-09-07T09:51:51;10.60;;;6.80;;
286;SDS011;127;48.770;9.212;2023-09-07T09:54:21;8.50;;;6.13;;
286;SDS011;127;48.770;9.212;2023-09-07T09:56:56;10.70;;;7.30;;
286;SDS011;127;48.770;9.212;2023-09-07T09:59:25;11.20;;;6.83;;
286;SDS011;127;48.770;9.212;2023-09-07T10:01:54;10.70;;;6.70;;
286;SDS011;127;48.770;9.212;2023-09-07T10:04:23;7.90;;;6.70;;
286;SDS011;127;48.770;9.212;2023-09-07T10:06:54;9.70;;;6.37;;
286;SDS011;127;48.770;9.212;2023-09-07T10:12:42;9.47;;;6.70;;
286;SDS011;127;48.770;9.212;2023-09-07T10:15:21;9.97;;;6.40;;
286;SDS011;127;48.770;9.212;2023-09-07T10:17:55;8.43;;;6.60;;
286;SDS011;127;48.770;9.212;2023-09-07T10:20:48;8.30;;;6.60;;
286;SDS011;127;48.770;9.212;2023-09-07T10:23:19;8.87;;;6.20;;
286;SDS011;127;48.770;9.212;2023-09-07T10:25:50;9.43;;;6.20;;
286;SDS011;127;48.770;9.212;2023-09-07T10:28:24;10.77;;;5.97;;
286;SDS011;127;48.770;9.212;2023-09-07T10:31:00;8.03;;;6.43;;
286;SDS011;127;48.770;9.212;2023-09-07T10:33:31;14.37;;;9.27;;
286;SDS011;127;48.770;9.212;2023-09-07T10:36:05;9.83;;;6.10;;
286;SDS011;127;48.770;9.212;2023-09-07T10:38:36;16.63;;;6.63;;
286;SDS011;127;48.770;9.212;2023-09-07T10:41:05;11.47;;;7.23;;
286;SDS011;127;48.770;9.212;2023-09-07T10:43:47;14.73;;;6.80;;
286;SDS011;127;48.770;9.212;2023-09-07T10:46:18;11.50;;;6.47;;
286;SDS011;127;48.770;9.212;2023-09-07T10:48:48;10.23;;;7.30;;
286;SDS011;127;48.770;9.212;2023-09-07T10:57:31;8.93;;;6.23;;
286;SDS011;127;48.770;9.212;2023-09-07T11:00:12;14.03;;;6.87;;
286;SDS011;127;48.770;9.212;2023-09-07T11:02:45;11.63;;;6.83;;
286;SDS011;127;48.770;9.212;2023-09-07T11:05:13;15.83;;;6.73;;
286;SDS011;127;48.770;9.212;2023-09-07T11:07:43;20.00;;;6.70;;
286;SDS011;127;48.770;9.212;2023-09-07T11:10:12;9.80;;;6.20;;
286;SDS011;127;48.770;9.212;2023-09-07T11:12:41;8.97;;;6.40;;
286;SDS011;127;48.770;9.212;2023-09-07T11:18:23;9.03;;;6.47;;
286;SDS011;127;48.770;9.212;2023-09-07T11:20:52;10.53;;;6.57;;
286;SDS011;127;48.770;9.212;2023-09-07T11:23:22;11.40;;;6.70;;
286;SDS011;127;48.770;9.212;2023-09-07T11:25:51;9.50;;;6.10;;
286;SDS011;127;48.770;9.212;2023-09-07T11:28:19;10.37;;;7.50;;
286;SDS011;127;48.770;9.212;2023-09-07T11:30:50;12.53;;;5.60;;
286;SDS011;127;48.770;9.212;2023-09-07T11:33:20;8.53;;;6.60;;
286;SDS011;127;48.770;9.212;2023-09-07T11:35:52;7.63;;;6.17;;
286;SDS011;127;48.770;9.212;2023-09-07T11:38:22;10.50;;;7.03;;
286;SDS011;127;48.770;9.212;2023-09-07T11:40:51;11.53;;;5.73;;
286;SDS011;127;48.770;9.212;2023-09-07T11:43:19;14.53;;;5.53;;
286;SDS011;127;48.770;9.212;2023-09-07T11:45:49;8.83;;;5.50;;
286;SDS011;127;48.770;9.212;2023-09-07T11:48:18;8.43;;;6.67;;
286;SDS011;127;48.770;9.212;2023-09-07T11:50:49;5.57;;;5.10;;
286;SDS011;127;48.770;9.212;2023-09-07T11:53:18;8.37;;;6.23;;
286;SDS011;127;48.770;9.212;2023-09-07T11:55:47;7.80;;;6.03;;
286;SDS011;127;48.770;9.212;2023-09-07T11:58:18;9.63;;;6.17;;
286;SDS011;127;48.770;9.212;2023-09-07T12:00:47;6.70;;;5.73;;
286;SDS011;127;48.770;9.212;2023-09-07T12:03:20;7.30;;;5.60;;
286;SDS011;127;48.770;9.212;2023-09-07T12:05:51;6.97;;;5.50;;
286;SDS011;127;48.770;9.212;2023-09-07T12:08:20;12.53;;;6.47;;
286;SDS011;127;48.770;9.212;2023-09-07T12:10:49;9.20;;;5.30;;
286;SDS011;127;48.770;9.212;2023-09-07T12:13:17;11.73;;;5.63;;
286;SDS011;127;48.770;9.212;2023-09-07T12:15:46;8.93;;;5.40;;
286;SDS011;127;48.770;9.212;2023-09-07T12:18:15;11.83;;;6.17;;
286;SDS011;127;48.770;9.212;2023-09-07T12:20:43;10.20;;;4.83;;
286;SDS011;127;48.770;9.212;2023-09-07T12:23:15;7.90;;;5.10;;
286;SDS011;127;48.770;9.212;2023-09-07T12:25:43;7.87;;;5.50;;
286;SDS011;127;48.770;9.212;2023-09-07T12:28:16;9.37;;;6.43;;
286;SDS011;127;48.770;9.212;2023-09-07T12:30:45;6.60;;;5.10;;
286;SDS011;127;48.770;9.212;2023-09-07T12:33:14;7.20;;;6.07;;
286;SDS011;127;48.770;9.212;2023-09-07T12:35:42;10.80;;;5.17;;
286;SDS011;127;48.770;9.212;2023-09-07T12:38:11;7.17;;;5.97;;
286;SDS011;127;48.770;9.212;2023-09-07T12:40:45;5.30;;;4.50;;
286;SDS011;127;48.770;9.212;2023-09-07T12:43:14;7.93;;;4.70;;
286;SDS011;127;48.770;9.212;2023-09-07T12:45:45;5.73;;;4.80;;
286;SDS011;127;48.770;9.212;2023-09-07T12:48:14;6.67;;;5.13;;
286;SDS011;127;48.770;9.212;2023-09-07T12:50:42;8.90;;;4.97;;
286;SDS011;127;48.770;9.212;2023-09-07T12:53:11;10.53;;;5.17;;
286;SDS011;127;48.770;9.212;2023-09-07T12:55:44;9.87;;;5.53;;
286;SDS011;127;48.770;9.212;2023-09-07T12:58:13;7.03;;;5.37;;
286;SDS011;127;48.770;9.212;2023-09-07T13:00:42;7.10;;;4.83;;
286;SDS011;127;48.770;9.212;2023-09-07T13:03:10;5.33;;;5.10;;
286;SDS011;127;48.770;9.212;2023-09-07T13:05:39;7.43;;;4.83;;
286;SDS011;127;48.770;9.212;2023-09-07T13:08:08;4.90;;;4.60;;
286;SDS011;127;48.770;9.212;2023-09-07T13:10:40;6.77;;;4.10;;
286;SDS011;127;48.770;9.212;2023-09-07T13:13:09;6.13;;;4.23;;
286;SDS011;127;48.770;9.212;2023-09-07T13:15:38;5.17;;;4.40;;
286;SDS011;127;48.770;9.212;2023-09-07T13:18:06;10.53;;;5.33;;
286;SDS011;127;48.770;9.212;2023-09-07T13:20:35;6.47;;;4.67;;
286;SDS011;127;48.770;9.212;2023-09-07T13:23:04;8.47;;;4.80;;
286;SDS011;127;48.770;9.212;2023-09-07T13:25:32;5.43;;;4.57;;
286;SDS011;127;48.770;9.212;2023-09-07T13:28:04;6.53;;;5.00;;
286;SDS011;127;48.770;9.212;2023-09-07T13:30:33;7.53;;;4.60;;
286;SDS011;127;48.770;9.212;2023-09-07T13:33:02;5.43;;;4.17;;
286;SDS011;127;48.770;9.212;2023-09-07T13:35:31;6.60;;;4.73;;
286;SDS011;127;48.770;9.212;2023-09-07T13:38:00;8.30;;;4.77;;
286;SDS011;127;48.770;9.212;2023-09-07T13:40:28;8.57;;;5.07;;
286;SDS011;127;48.770;9.212;2023-09-07T13:42:57;6.30;;;4.33;;
286;SDS011;127;48.770;9.212;2023-09-07T13:45:28;5.63;;;4.63;;
286;SDS011;127;48.770;9.212;2023-09-07T13:47:57;13.00;;;5.20;;
286;SDS011;127;48.770;9.212;2023-09-07T13:50:27;6.70;;;4.97;;
286;SDS011;127;48.770;9.212;2023-09-07T13:52:59;5.90;;;4.60;;
286;SDS011;127;48.770;9.212;2023-09-07T13:55:28;8.87;;;5.20;;
286;SDS011;127;48.770;9.212;2023-09-07T13:57:56;14.17;;;5.10;;
286;SDS011;127;48.770;9.212;2023-09-07T14:00:28;7.60;;;4.80;;
286;SDS011;127;48.770;9.212;2023-09-07T14:02:56;7.47;;;4.90;;
286;SDS011;127;48.770;9.212;2023-09-07T14:05:25;6.27;;;4.40;;
286;SDS011;127;48.770;9.212;2023-09-07T14:07:54;7.13;;;4.80;;
286;SDS011;127;48.770;9.212;2023-09-07T14:10:22;9.13;;;4.87;;
286;SDS011;127;48.770;9.212;2023-09-07T14:12:51;4.90;;;4.60;;
286;SDS011;127;48.770;9.212;2023-09-07T14:15:20;7.07;;;4.87;;
286;SDS011;127;48.770;9.212;2023-09-07T14:17:51;7.43;;;4.37;;
286;SDS011;127;48.770;9.212;2023-09-07T14:20:20;5.13;;;4.33;;
286;SDS011;127;48.770;9.212;2023-09-07T14:22:49;8.90;;;4.43;;
286;SDS011;127;48.770;9.212;2023-09-07T14:25:18;5.20;;;4.57;;
286;SDS011;127;48.770;9.212;2023-09-07T14:27:47;9.30;;;4.90;;
286;SDS011;127;48.770;9.212;2023-09-07T14:30:16;9.93;;;4.53;;
286;SDS011;127;48.770;9.212;2023-09-07T14:32:44;5.83;;;4.50;;
286;SDS011;127;48.770;9.212;2023-09-07T14:35:16;7.30;;;5.33;;
286;SDS011;127;48.770;9.212;2023-09-07T14:37:45;12.23;;;5.87;;
286;SDS011;127;48.770;9.212;2023-09-07T14:40:14;6.57;;;5.20;;
286;SDS011;127;48.770;9.212;2023-09-07T14:42:44;8.00;;;4.70;;
286;SDS011;127;48.770;9.212;2023-09-07T14:45:12;6.90;;;4.97;;
286;SDS011;127;48.770;9.212;2023-09-07T14:47:41;7.90;;;4.30;;
286;SDS011;127;48.770;9.212;2023-09-07T14:50:10;6.20;;;4.73;;
286;SDS011;127;48.770;9.212;2023-09-07T14:52:42;6.90;;;4.30;;
286;SDS011;127;48.770;9.212;2023-09-07T14:55:12;8.07;;;5.27;;
286;SDS011;127;48.770;9.212;2023-09-07T14:57:41;5.10;;;4.40;;
286;SDS011;127;48.770;9.212;2023-09-07T15:00:10;9.23;;;4.60;;
286;SDS011;127;48.770;9.212;2023-09-07T15:02:39;10.70;;;5.20;;
286;SDS011;127;48.770;9.212;2023-09-07T15:05:08;5.93;;;4.90;;
286;SDS011;127;48.770;9.212;2023-09-07T15:07:37;9.33;;;5.03;;
286;SDS011;127;48.770;9.212;2023-09-07T15:10:09;8.17;;;4.97;;
286;SDS011;127;48.770;9.212;2023-09-07T15:12:38;8.40;;;4.93;;
286;SDS011;127;48.770;9.212;2023-09-07T15:15:07;5.57;;;4.63;;
286;SDS011;127;48.770;9.212;2023-09-07T15:17:37;4.77;;;4.50;;
286;SDS011;127;48.770;9.212;2023-09-07T15:20:07;8.10;;;5.00;;
286;SDS011;127;48.770;9.212;2023-09-07T15:22:36;6.97;;;4.33;;
286;SDS011;127;48.770;9.212;2023-09-07T15:25:05;9.47;;;4.90;;
286;SDS011;127;48.770;9.212;2023-09-07T15:27:38;8.00;;;4.93;;
286;SDS011;127;48.770;9.212;2023-09-07T15:30:07;6.43;;;5.03;;
286;SDS011;127;48.770;9.212;2023-09-07T15:32:37;6.63;;;4.73;;
286;SDS011;127;48.770;9.212;2023-09-07T15:35:06;14.13;;;5.03;;
286;SDS011;127;48.770;9.212;2023-09-07T15:37:35;6.87;;;4.70;;
286;SDS011;127;48.770;9.212;2023-09-07T15:40:07;7.40;;;4.40;;
286;SDS011;127;48.770;9.212;2023-09-07T15:42:41;10.33;;;4.67;;
286;SDS011;127;48.770;9.212;2023-09-07T15:45:09;6.10;;;5.00;;
286;SDS011;127;48.770;9.212;2023-09-07T15:47:38;11.23;;;5.50;;
286;SDS011;127;48.770;9.212;2023-09-07T15:50:08;6.80;;;5.10;;
286;SDS011;127;48.770;9.212;2023-09-07T15:52:44;7.50;;;4.50;;
286;SDS011;127;48.770;9.212;2023-09-07T15:55:15;5.30;;;4.57;;
286;SDS011;127;48.770;9.212;2023-09-07T15:57:47;7.97;;;5.30;;
286;SDS011;127;48.770;9.212;2023-09-07T16:00:16;7.23;;;4.77;;
286;SDS011;127;48.770;9.212;2023-09-07T16:02:45;5.93;;;4.50;;
286;SDS011;127;48.770;9.212;2023-09-07T16:05:14;8.90;;;5.50;;
286;SDS011;127;48.770;9.212;2023-09-07T16:07:42;6.30;;;5.10;;
286;SDS011;127;48.770;9.212;2023-09-07T16:10:12;8.90;;;5.40;;
286;SDS011;127;48.770;9.212;2023-09-07T16:12:41;5.87;;;4.77;;